sensor_id;sensor_type;location;lat;lon;timestamp;P1;durP1;ratioP1;P2;durP2;ratioP2
14019;SDS011;7085;51.428;6.796;2022-07-30T00:00:35;4.47;;;3.40;;
14019;SDS011;7085;51.428;6.796;2022-07-30T00:03:02;5.05;;;4.05;;
14019;SDS011;7085;51.428;6.796;2022-07-30T00:05:30;6.15;;;3.92;;
14019;SDS011;7085;51.428;6.796;2022-07-30T00:07:57;4.93;;;3.83;;
14019;SDS011;7085;51.428;6.796;2022-07-30T00:10:24;4.18;;;3.78;;
14019;SDS011;7085;51.428;6.796;2022-07-30T00:12:51;7.65;;;3.95;;
14019;SDS011;7085;51.428;6.796;2022-07-30T00:15:18;9.95;;;4.80;;
14019;SDS011;7085;51.428;6.796;2022-07-30T00:17:45;6.32;;;3.90;;
14019;SDS011;7085;51.428;6.796;2022-07-30T00:20:12;5.60;;;4.40;;
14019;SDS011;7085;51.428;6.796;2022-07-30T00:22:40;6.32;;;4.55;;
14019;SDS011;7085;51.428;6.796;2022-07-30T00:25:07;7.47;;;4.05;;
14019;SDS011;7085;51.428;6.796;2022-07-30T00:27:34;5.75;;;4.25;;
14019;SDS011;7085;51.428;6.796;2022-07-30T00:30:01;6.03;;;4.43;;
14019;SDS011;7085;51.428;6.796;2022-07-30T00:32:29;7.18;;;4.50;;
14019;SDS011;7085;51.428;6.796;2022-07-30T00:34:56;7.50;;;4.35;;
14019;SDS011;7085;51.428;6.796;2022-07-30T00:37:23;8.07;;;4.20;;
14019;SDS011;7085;51.428;6.796;2022-07-30T00:39:51;5.22;;;4.43;;
14019;SDS011;7085;51.428;6.796;2022-07-30T00:42:18;5.32;;;4.30;;
14019;SDS011;7085;51.428;6.796;2022-07-30T00:44:49;5.97;;;4.18;;
14019;SDS011;7085;51.428;6.796;2022-07-30T00:47:16;5.78;;;4.10;;
14019;SDS011;7085;51.428;6.796;2022-07-30T00:49:43;8.10;;;4.60;;
14019;SDS011;7085;51.428;6.796;2022-07-30T00:52:10;5.72;;;3.85;;
14019;SDS011;7085;51.428;6.796;2022-07-30T00:54:37;6.72;;;4.25;;
14019;SDS011;7085;51.428;6.796;2022-07-30T00:57:05;5.35;;;4.00;;
14019;SDS011;7085;51.428;6.796;2022-07-30T00:59:32;8.10;;;4.20;;
14019;SDS011;7085;51.428;6.796;2022-07-30T01:01:59;6.97;;;4.63;;
14019;SDS011;7085;51.428;6.796;2022-07-30T01:04:27;6.78;;;4.32;;
14019;SDS011;7085;51.428;6.796;2022-07-30T01:06:54;5.85;;;4.00;;
14019;SDS011;7085;51.428;6.796;2022-07-30T01:09:21;5.40;;;4.00;;
14019;SDS011;7085;51.428;6.796;2022-07-30T01:11:49;8.93;;;3.85;;
14019;SDS011;7085;51.428;6.796;2022-07-30T01:14:17;5.53;;;4.63;;
14019;SDS011;7085;51.428;6.796;2022-07-30T01:16:44;6.88;;;4.25;;
14019;SDS011;7085;51.428;6.796;2022-07-30T01:19:12;8.00;;;3.90;;
14019;SDS011;7085;51.428;6.796;2022-07-30T01:22:05;5.85;;;4.05;;
14019;SDS011;7085;51.428;6.796;2022-07-30T01:24:37;5.13;;;4.30;;
14019;SDS011;7085;51.428;6.796;2022-07-30T01:27:07;6.07;;;4.07;;
14019;SDS011;7085;51.428;6.796;2022-07-30T01:29:38;4.45;;;4.05;;
14019;SDS011;7085;51.428;6.796;2022-07-30T01:32:07;5.55;;;3.95;;
14019;SDS011;7085;51.428;6.796;2022-07-30T01:34:35;6.00;;;4.13;;
14019;SDS011;7085;51.428;6.796;2022-07-30T01:37:04;4.95;;;4.07;;
14019;SDS011;7085;51.428;6.796;2022-07-30T01:39:33;9.30;;;4.40;;
14019;SDS011;7085;51.428;6.796;2022-07-30T01:42:01;6.28;;;4.00;;
14019;SDS011;7085;51.428;6.796;2022-07-30T01:44:32;7.75;;;4.57;;
14019;SDS011;7085;51.428;6.796;2022-07-30T01:47:00;5.57;;;4.28;;
14019;SDS011;7085;51.428;6.796;2022-07-30T01:49:27;7.30;;;4.90;;
14019;SDS011;7085;51.428;6.796;2022-07-30T01:51:55;4.85;;;3.88;;
14019;SDS011;7085;51.428;6.796;2022-07-30T01:54:23;5.07;;;4.40;;
14019;SDS011;7085;51.428;6.796;2022-07-30T01:56:51;6.68;;;4.78;;
14019;SDS011;7085;51.428;6.796;2022-07-30T01:59:21;4.82;;;4.38;;
14019;SDS011;7085;51.428;6.796;2022-07-30T02:01:50;5.10;;;4.55;;
14019;SDS011;7085;51.428;6.796;2022-07-30T02:04:17;6.57;;;4.72;;
14019;SDS011;7085;51.428;6.796;2022-07-30T02:06:46;6.85;;;5.47;;
14019;SDS011;7085;51.428;6.796;2022-07-30T02:09:21;6.53;;;5.25;;
14019;SDS011;7085;51.428;6.796;2022-07-30T02:11:53;7.55;;;5.10;;
14019;SDS011;7085;51.428;6.796;2022-07-30T02:14:40;6.22;;;4.70;;
14019;SDS011;7085;51.428;6.796;2022-07-30T02:17:15;7.00;;;5.03;;
14019;SDS011;7085;51.428;6.796;2022-07-30T02:19:48;6.45;;;4.85;;
14019;SDS011;7085;51.428;6.796;2022-07-30T02:22:19;5.88;;;5.38;;
14019;SDS011;7085;51.428;6.796;2022-07-30T02:24:47;5.38;;;4.68;;
14019;SDS011;7085;51.428;6.796;2022-07-30T02:27:17;6.05;;;5.15;;
14019;SDS011;7085;51.428;6.796;2022-07-30T02:29:53;9.25;;;5.40;;
14019;SDS011;7085;51.428;6.796;2022-07-30T02:32:24;8.25;;;5.82;;
14019;SDS011;7085;51.428;6.796;2022-07-30T02:34:53;5.93;;;5.43;;
14019;SDS011;7085;51.428;6.796;2022-07-30T02:37:24;6.93;;;6.10;;
14019;SDS011;7085;51.428;6.796;2022-07-30T02:39:52;6.88;;;5.63;;
14019;SDS011;7085;51.428;6.796;2022-07-30T02:42:20;5.95;;;5.35;;
14019;SDS011;7085;51.428;6.796;2022-07-30T02:44:48;8.77;;;5.93;;
14019;SDS011;7085;51.428;6.796;2022-07-30T02:47:17;7.82;;;5.72;;
14019;SDS011;7085;51.428;6.796;2022-07-30T02:49:49;7.90;;;5.85;;
14019;SDS011;7085;51.428;6.796;2022-07-30T02:52:18;9.50;;;6.05;;
14019;SDS011;7085;51.428;6.796;2022-07-30T02:54:46;9.27;;;6.22;;
14019;SDS011;7085;51.428;6.796;2022-07-30T02:57:15;6.65;;;6.03;;
14019;SDS011;7085;51.428;6.796;2022-07-30T02:59:44;12.02;;;6.70;;
14019;SDS011;7085;51.428;6.796;2022-07-30T03:02:12;6.88;;;6.28;;
14019;SDS011;7085;51.428;6.796;2022-07-30T03:04:40;7.68;;;6.20;;
14019;SDS011;7085;51.428;6.796;2022-07-30T03:07:09;9.10;;;6.47;;
14019;SDS011;7085;51.428;6.796;2022-07-30T03:09:38;8.05;;;6.32;;
14019;SDS011;7085;51.428;6.796;2022-07-30T03:12:09;8.40;;;6.57;;
14019;SDS011;7085;51.428;6.796;2022-07-30T03:14:37;6.88;;;6.05;;
14019;SDS011;7085;51.428;6.796;2022-07-30T03:17:05;10.02;;;6.30;;
14019;SDS011;7085;51.428;6.796;2022-07-30T03:19:35;7.50;;;6.07;;
14019;SDS011;7085;51.428;6.796;2022-07-30T03:22:03;6.65;;;5.95;;
14019;SDS011;7085;51.428;6.796;2022-07-30T03:24:33;8.98;;;7.55;;
14019;SDS011;7085;51.428;6.796;2022-07-30T03:27:03;8.60;;;7.00;;
14019;SDS011;7085;51.428;6.796;2022-07-30T03:29:31;7.65;;;6.65;;
14019;SDS011;7085;51.428;6.796;2022-07-30T03:32:00;6.95;;;6.32;;
14019;SDS011;7085;51.428;6.796;2022-07-30T03:34:27;10.75;;;6.88;;
14019;SDS011;7085;51.428;6.796;2022-07-30T03:36:56;10.02;;;6.85;;
14019;SDS011;7085;51.428;6.796;2022-07-30T03:39:24;8.05;;;6.93;;
14019;SDS011;7085;51.428;6.796;2022-07-30T03:41:53;8.25;;;6.97;;
14019;SDS011;7085;51.428;6.796;2022-07-30T03:44:20;7.80;;;7.05;;
14019;SDS011;7085;51.428;6.796;2022-07-30T03:46:47;9.68;;;7.03;;
14019;SDS011;7085;51.428;6.796;2022-07-30T03:49:15;7.90;;;7.15;;
14019;SDS011;7085;51.428;6.796;2022-07-30T03:51:42;7.75;;;6.95;;
14019;SDS011;7085;51.428;6.796;2022-07-30T03:54:10;10.73;;;7.57;;
14019;SDS011;7085;51.428;6.796;2022-07-30T03:56:38;9.68;;;7.30;;
14019;SDS011;7085;51.428;6.796;2022-07-30T03:59:06;9.18;;;7.18;;
14019;SDS011;7085;51.428;6.796;2022-07-30T04:01:33;9.68;;;6.70;;
14019;SDS011;7085;51.428;6.796;2022-07-30T04:04:04;7.60;;;6.78;;
14019;SDS011;7085;51.428;6.796;2022-07-30T04:06:32;7.22;;;6.50;;
14019;SDS011;7085;51.428;6.796;2022-07-30T04:09:03;7.47;;;6.78;;
14019;SDS011;7085;51.428;6.796;2022-07-30T04:11:30;7.75;;;6.85;;
14019;SDS011;7085;51.428;6.796;2022-07-30T04:13:57;8.50;;;7.30;;
14019;SDS011;7085;51.428;6.796;2022-07-30T04:16:28;8.65;;;7.03;;
14019;SDS011;7085;51.428;6.796;2022-07-30T04:19:00;9.75;;;7.35;;
14019;SDS011;7085;51.428;6.796;2022-07-30T04:21:30;7.68;;;7.00;;
14019;SDS011;7085;51.428;6.796;2022-07-30T04:23:58;12.30;;;7.55;;
14019;SDS011;7085;51.428;6.796;2022-07-30T04:26:27;8.77;;;7.97;;
14019;SDS011;7085;51.428;6.796;2022-07-30T04:28:54;10.25;;;7.65;;
14019;SDS011;7085;51.428;6.796;2022-07-30T04:31:21;9.32;;;7.07;;
14019;SDS011;7085;51.428;6.796;2022-07-30T04:33:49;9.55;;;7.93;;
14019;SDS011;7085;51.428;6.796;2022-07-30T04:36:16;8.02;;;7.25;;
14019;SDS011;7085;51.428;6.796;2022-07-30T04:38:43;8.02;;;7.03;;
14019;SDS011;7085;51.428;6.796;2022-07-30T04:41:10;8.10;;;6.85;;
14019;SDS011;7085;51.428;6.796;2022-07-30T04:43:36;7.60;;;6.78;;
14019;SDS011;7085;51.428;6.796;2022-07-30T04:46:03;11.98;;;7.85;;
14019;SDS011;7085;51.428;6.796;2022-07-30T04:48:30;7.60;;;6.82;;
14019;SDS011;7085;51.428;6.796;2022-07-30T04:50:59;10.15;;;7.32;;
14019;SDS011;7085;51.428;6.796;2022-07-30T04:53:30;8.65;;;7.40;;
14019;SDS011;7085;51.428;6.796;2022-07-30T04:55:57;8.43;;;7.68;;
14019;SDS011;7085;51.428;6.796;2022-07-30T04:58:26;10.00;;;7.72;;
14019;SDS011;7085;51.428;6.796;2022-07-30T05:00:54;8.50;;;7.63;;
14019;SDS011;7085;51.428;6.796;2022-07-30T05:03:22;9.80;;;7.40;;
14019;SDS011;7085;51.428;6.796;2022-07-30T05:05:51;10.32;;;8.23;;
14019;SDS011;7085;51.428;6.796;2022-07-30T05:08:19;9.65;;;8.65;;
14019;SDS011;7085;51.428;6.796;2022-07-30T05:10:46;10.93;;;9.15;;
14019;SDS011;7085;51.428;6.796;2022-07-30T05:13:13;12.43;;;9.23;;
14019;SDS011;7085;51.428;6.796;2022-07-30T05:15:41;18.25;;;12.45;;
14019;SDS011;7085;51.428;6.796;2022-07-30T05:18:09;19.50;;;15.50;;
14019;SDS011;7085;51.428;6.796;2022-07-30T05:20:36;24.58;;;17.48;;
14019;SDS011;7085;51.428;6.796;2022-07-30T05:23:04;16.00;;;14.30;;
14019;SDS011;7085;51.428;6.796;2022-07-30T05:25:32;19.20;;;15.05;;
14019;SDS011;7085;51.428;6.796;2022-07-30T05:27:58;21.80;;;14.68;;
14019;SDS011;7085;51.428;6.796;2022-07-30T05:30:25;19.45;;;16.42;;
14019;SDS011;7085;51.428;6.796;2022-07-30T05:32:52;22.02;;;16.70;;
14019;SDS011;7085;51.428;6.796;2022-07-30T05:35:19;51.55;;;30.35;;
14019;SDS011;7085;51.428;6.796;2022-07-30T05:37:46;48.83;;;30.50;;
14019;SDS011;7085;51.428;6.796;2022-07-30T05:40:13;47.65;;;27.63;;
14019;SDS011;7085;51.428;6.796;2022-07-30T05:42:41;48.13;;;30.30;;
14019;SDS011;7085;51.428;6.796;2022-07-30T05:45:08;50.15;;;30.92;;
14019;SDS011;7085;51.428;6.796;2022-07-30T05:47:35;48.40;;;31.33;;
14019;SDS011;7085;51.428;6.796;2022-07-30T05:50:02;56.63;;;32.88;;
14019;SDS011;7085;51.428;6.796;2022-07-30T05:52:29;61.08;;;35.03;;
14019;SDS011;7085;51.428;6.796;2022-07-30T05:54:56;57.10;;;35.15;;
14019;SDS011;7085;51.428;6.796;2022-07-30T05:57:22;55.63;;;33.50;;
14019;SDS011;7085;51.428;6.796;2022-07-30T05:59:50;54.08;;;35.22;;
14019;SDS011;7085;51.428;6.796;2022-07-30T06:02:17;48.63;;;32.80;;
14019;SDS011;7085;51.428;6.796;2022-07-30T06:04:44;51.17;;;33.63;;
14019;SDS011;7085;51.428;6.796;2022-07-30T06:07:11;43.50;;;33.05;;
14019;SDS011;7085;51.428;6.796;2022-07-30T06:09:38;46.22;;;30.80;;
14019;SDS011;7085;51.428;6.796;2022-07-30T06:12:05;40.60;;;29.05;;
14019;SDS011;7085;51.428;6.796;2022-07-30T06:14:32;40.28;;;26.60;;
14019;SDS011;7085;51.428;6.796;2022-07-30T06:17:00;34.35;;;25.90;;
14019;SDS011;7085;51.428;6.796;2022-07-30T06:19:27;31.85;;;25.80;;
14019;SDS011;7085;51.428;6.796;2022-07-30T06:21:54;31.48;;;24.25;;
14019;SDS011;7085;51.428;6.796;2022-07-30T06:24:21;32.90;;;23.52;;
14019;SDS011;7085;51.428;6.796;2022-07-30T06:26:48;27.23;;;20.95;;
14019;SDS011;7085;51.428;6.796;2022-07-30T06:29:15;24.65;;;20.00;;
14019;SDS011;7085;51.428;6.796;2022-07-30T06:31:42;32.83;;;23.67;;
14019;SDS011;7085;51.428;6.796;2022-07-30T06:34:10;25.75;;;20.65;;
14019;SDS011;7085;51.428;6.796;2022-07-30T06:36:36;37.95;;;28.02;;
14019;SDS011;7085;51.428;6.796;2022-07-30T06:39:03;40.33;;;31.42;;
14019;SDS011;7085;51.428;6.796;2022-07-30T06:41:30;45.78;;;35.28;;
14019;SDS011;7085;51.428;6.796;2022-07-30T06:43:57;43.30;;;34.40;;
14019;SDS011;7085;51.428;6.796;2022-07-30T06:46:24;42.00;;;33.60;;
14019;SDS011;7085;51.428;6.796;2022-07-30T06:48:50;30.70;;;27.25;;
14019;SDS011;7085;51.428;6.796;2022-07-30T06:51:19;31.35;;;27.77;;
14019;SDS011;7085;51.428;6.796;2022-07-30T06:53:45;33.33;;;27.60;;
14019;SDS011;7085;51.428;6.796;2022-07-30T06:56:12;24.40;;;21.90;;
14019;SDS011;7085;51.428;6.796;2022-07-30T06:58:39;23.52;;;21.27;;
14019;SDS011;7085;51.428;6.796;2022-07-30T07:01:06;26.02;;;20.38;;
14019;SDS011;7085;51.428;6.796;2022-07-30T07:03:33;23.13;;;20.73;;
14019;SDS011;7085;51.428;6.796;2022-07-30T07:05:59;24.63;;;22.02;;
14019;SDS011;7085;51.428;6.796;2022-07-30T07:08:29;23.27;;;20.88;;
14019;SDS011;7085;51.428;6.796;2022-07-30T07:10:55;22.75;;;20.58;;
14019;SDS011;7085;51.428;6.796;2022-07-30T07:13:22;22.77;;;20.13;;
14019;SDS011;7085;51.428;6.796;2022-07-30T07:15:49;21.55;;;17.65;;
14019;SDS011;7085;51.428;6.796;2022-07-30T07:18:16;19.92;;;17.90;;
14019;SDS011;7085;51.428;6.796;2022-07-30T07:20:43;21.75;;;19.67;;
14019;SDS011;7085;51.428;6.796;2022-07-30T07:23:11;22.23;;;19.55;;
14019;SDS011;7085;51.428;6.796;2022-07-30T07:25:39;20.35;;;18.17;;
14019;SDS011;7085;51.428;6.796;2022-07-30T07:28:06;18.10;;;16.30;;
14019;SDS011;7085;51.428;6.796;2022-07-30T07:30:33;15.45;;;12.63;;
14019;SDS011;7085;51.428;6.796;2022-07-30T07:33:00;14.13;;;12.73;;
14019;SDS011;7085;51.428;6.796;2022-07-30T07:35:27;14.27;;;12.80;;
14019;SDS011;7085;51.428;6.796;2022-07-30T07:37:54;12.90;;;11.60;;
14019;SDS011;7085;51.428;6.796;2022-07-30T07:40:20;14.75;;;11.85;;
14019;SDS011;7085;51.428;6.796;2022-07-30T07:42:48;16.83;;;13.40;;
14019;SDS011;7085;51.428;6.796;2022-07-30T07:45:15;17.88;;;13.13;;
14019;SDS011;7085;51.428;6.796;2022-07-30T07:47:42;13.73;;;12.32;;
14019;SDS011;7085;51.428;6.796;2022-07-30T07:50:09;17.48;;;12.23;;
14019;SDS011;7085;51.428;6.796;2022-07-30T07:52:37;13.70;;;12.30;;
14019;SDS011;7085;51.428;6.796;2022-07-30T07:55:04;15.20;;;13.70;;
14019;SDS011;7085;51.428;6.796;2022-07-30T07:57:36;16.65;;;14.90;;
14019;SDS011;7085;51.428;6.796;2022-07-30T08:00:06;17.80;;;13.48;;
14019;SDS011;7085;51.428;6.796;2022-07-30T08:02:34;16.17;;;14.00;;
14019;SDS011;7085;51.428;6.796;2022-07-30T08:05:01;12.30;;;11.10;;
14019;SDS011;7085;51.428;6.796;2022-07-30T08:07:29;12.68;;;10.93;;
14019;SDS011;7085;51.428;6.796;2022-07-30T08:09:56;13.57;;;11.13;;
14019;SDS011;7085;51.428;6.796;2022-07-30T08:12:22;11.52;;;10.43;;
14019;SDS011;7085;51.428;6.796;2022-07-30T08:14:49;14.38;;;10.75;;
14019;SDS011;7085;51.428;6.796;2022-07-30T08:17:18;10.68;;;9.57;;
14019;SDS011;7085;51.428;6.796;2022-07-30T08:19:44;10.52;;;8.98;;
14019;SDS011;7085;51.428;6.796;2022-07-30T08:22:11;11.82;;;8.02;;
14019;SDS011;7085;51.428;6.796;2022-07-30T08:24:38;10.77;;;9.30;;
14019;SDS011;7085;51.428;6.796;2022-07-30T08:27:05;11.35;;;8.95;;
14019;SDS011;7085;51.428;6.796;2022-07-30T08:29:32;11.55;;;9.13;;
14019;SDS011;7085;51.428;6.796;2022-07-30T08:32:00;13.57;;;9.00;;
14019;SDS011;7085;51.428;6.796;2022-07-30T08:34:28;10.13;;;9.13;;
14019;SDS011;7085;51.428;6.796;2022-07-30T08:36:55;10.30;;;9.30;;
14019;SDS011;7085;51.428;6.796;2022-07-30T08:39:22;12.75;;;10.02;;
14019;SDS011;7085;51.428;6.796;2022-07-30T08:41:49;13.43;;;9.60;;
14019;SDS011;7085;51.428;6.796;2022-07-30T08:44:16;12.68;;;8.77;;
14019;SDS011;7085;51.428;6.796;2022-07-30T08:46:44;9.93;;;8.48;;
14019;SDS011;7085;51.428;6.796;2022-07-30T08:49:12;9.88;;;8.88;;
14019;SDS011;7085;51.428;6.796;2022-07-30T08:51:40;11.90;;;8.50;;
14019;SDS011;7085;51.428;6.796;2022-07-30T08:54:08;8.13;;;7.32;;
14019;SDS011;7085;51.428;6.796;2022-07-30T08:56:35;13.93;;;7.85;;
14019;SDS011;7085;51.428;6.796;2022-07-30T08:59:02;11.55;;;7.75;;
14019;SDS011;7085;51.428;6.796;2022-07-30T09:01:29;11.70;;;7.03;;
14019;SDS011;7085;51.428;6.796;2022-07-30T09:03:56;12.23;;;7.10;;
14019;SDS011;7085;51.428;6.796;2022-07-30T09:06:23;8.38;;;7.50;;
14019;SDS011;7085;51.428;6.796;2022-07-30T09:08:51;8.68;;;7.78;;
14019;SDS011;7085;51.428;6.796;2022-07-30T09:11:17;10.45;;;6.95;;
14019;SDS011;7085;51.428;6.796;2022-07-30T09:13:44;9.68;;;6.50;;
14019;SDS011;7085;51.428;6.796;2022-07-30T09:16:21;10.52;;;6.78;;
14019;SDS011;7085;51.428;6.796;2022-07-30T09:18:49;9.95;;;6.05;;
14019;SDS011;7085;51.428;6.796;2022-07-30T09:21:18;7.22;;;6.35;;
14019;SDS011;7085;51.428;6.796;2022-07-30T09:23:58;8.48;;;6.13;;
14019;SDS011;7085;51.428;6.796;2022-07-30T09:26:26;8.90;;;5.57;;
14019;SDS011;7085;51.428;6.796;2022-07-30T09:28:53;6.18;;;5.13;;
14019;SDS011;7085;51.428;6.796;2022-07-30T09:31:20;8.90;;;6.10;;
14019;SDS011;7085;51.428;6.796;2022-07-30T09:33:48;8.23;;;5.05;;
14019;SDS011;7085;51.428;6.796;2022-07-30T09:36:15;6.80;;;6.10;;
14019;SDS011;7085;51.428;6.796;2022-07-30T09:38:44;6.50;;;4.78;;
14019;SDS011;7085;51.428;6.796;2022-07-30T09:41:14;8.73;;;5.55;;
14019;SDS011;7085;51.428;6.796;2022-07-30T09:43:45;8.43;;;5.32;;
14019;SDS011;7085;51.428;6.796;2022-07-30T09:46:13;5.38;;;4.60;;
14019;SDS011;7085;51.428;6.796;2022-07-30T09:48:40;6.40;;;3.80;;
14019;SDS011;7085;51.428;6.796;2022-07-30T09:51:08;6.30;;;3.90;;
14019;SDS011;7085;51.428;6.796;2022-07-30T09:53:35;6.03;;;4.07;;
14019;SDS011;7085;51.428;6.796;2022-07-30T09:58:52;7.60;;;3.50;;
14019;SDS011;7085;51.428;6.796;2022-07-30T10:01:19;6.57;;;3.08;;
14019;SDS011;7085;51.428;6.796;2022-07-30T10:03:46;6.45;;;2.85;;
14019;SDS011;7085;51.428;6.796;2022-07-30T10:06:13;4.50;;;3.25;;
14019;SDS011;7085;51.428;6.796;2022-07-30T10:08:40;6.40;;;3.00;;
14019;SDS011;7085;51.428;6.796;2022-07-30T10:11:09;3.90;;;2.97;;
14019;SDS011;7085;51.428;6.796;2022-07-30T10:13:39;3.85;;;2.90;;
14019;SDS011;7085;51.428;6.796;2022-07-30T10:16:07;6.22;;;2.53;;
14019;SDS011;7085;51.428;6.796;2022-07-30T10:18:35;5.03;;;2.65;;
14019;SDS011;7085;51.428;6.796;2022-07-30T10:21:03;3.35;;;2.58;;
14019;SDS011;7085;51.428;6.796;2022-07-30T10:23:30;5.10;;;2.65;;
14019;SDS011;7085;51.428;6.796;2022-07-30T10:25:58;5.05;;;2.22;;
14019;SDS011;7085;51.428;6.796;2022-07-30T10:28:26;3.67;;;2.42;;
14019;SDS011;7085;51.428;6.796;2022-07-30T10:30:55;4.88;;;2.50;;
14019;SDS011;7085;51.428;6.796;2022-07-30T10:33:23;5.65;;;2.03;;
14019;SDS011;7085;51.428;6.796;2022-07-30T10:35:52;4.32;;;2.08;;
14019;SDS011;7085;51.428;6.796;2022-07-30T10:38:20;3.90;;;2.47;;
14019;SDS011;7085;51.428;6.796;2022-07-30T10:40:51;3.33;;;2.15;;
14019;SDS011;7085;51.428;6.796;2022-07-30T10:46:18;4.28;;;2.05;;
14019;SDS011;7085;51.428;6.796;2022-07-30T10:48:54;4.15;;;2.00;;
14019;SDS011;7085;51.428;6.796;2022-07-30T10:51:41;2.33;;;2.13;;
14019;SDS011;7085;51.428;6.796;2022-07-30T10:57:07;2.72;;;1.60;;
14019;SDS011;7085;51.428;6.796;2022-07-30T11:02:36;3.92;;;1.90;;
14019;SDS011;7085;51.428;6.796;2022-07-30T11:05:22;4.45;;;1.80;;
14019;SDS011;7085;51.428;6.796;2022-07-30T11:07:52;3.05;;;1.60;;
14019;SDS011;7085;51.428;6.796;2022-07-30T11:10:35;3.95;;;1.73;;
14019;SDS011;7085;51.428;6.796;2022-07-30T11:13:03;3.08;;;2.30;;
14019;SDS011;7085;51.428;6.796;2022-07-30T11:18:19;4.47;;;2.20;;
14019;SDS011;7085;51.428;6.796;2022-07-30T11:23:39;4.63;;;2.15;;
14019;SDS011;7085;51.428;6.796;2022-07-30T11:26:07;5.57;;;2.53;;
14019;SDS011;7085;51.428;6.796;2022-07-30T11:28:36;4.13;;;2.58;;
14019;SDS011;7085;51.428;6.796;2022-07-30T11:37:02;4.13;;;2.47;;
14019;SDS011;7085;51.428;6.796;2022-07-30T11:42:27;3.15;;;2.20;;
14019;SDS011;7085;51.428;6.796;2022-07-30T11:44:59;3.55;;;2.22;;
14019;SDS011;7085;51.428;6.796;2022-07-30T11:47:48;2.65;;;2.13;;
14019;SDS011;7085;51.428;6.796;2022-07-30T11:50:17;3.90;;;2.10;;
14019;SDS011;7085;51.428;6.796;2022-07-30T11:52:47;4.40;;;2.30;;
14019;SDS011;7085;51.428;6.796;2022-07-30T11:55:20;4.47;;;2.28;;
14019;SDS011;7085;51.428;6.796;2022-07-30T11:57:49;3.78;;;2.00;;
14019;SDS011;7085;51.428;6.796;2022-07-30T12:00:16;2.78;;;1.75;;
14019;SDS011;7085;51.428;6.796;2022-07-30T12:02:43;3.85;;;2.60;;
14019;SDS011;7085;51.428;6.796;2022-07-30T12:05:10;2.88;;;2.33;;
14019;SDS011;7085;51.428;6.796;2022-07-30T12:07:39;4.20;;;2.50;;
14019;SDS011;7085;51.428;6.796;2022-07-30T12:10:13;3.22;;;1.98;;
14019;SDS011;7085;51.428;6.796;2022-07-30T12:12:40;4.28;;;1.90;;
14019;SDS011;7085;51.428;6.796;2022-07-30T12:15:07;4.28;;;2.03;;
14019;SDS011;7085;51.428;6.796;2022-07-30T12:17:41;2.60;;;1.80;;
14019;SDS011;7085;51.428;6.796;2022-07-30T12:20:15;4.70;;;1.70;;
14019;SDS011;7085;51.428;6.796;2022-07-30T12:22:45;2.83;;;1.60;;
14019;SDS011;7085;51.428;6.796;2022-07-30T12:25:12;3.03;;;1.85;;
14019;SDS011;7085;51.428;6.796;2022-07-30T12:27:39;3.63;;;1.50;;
14019;SDS011;7085;51.428;6.796;2022-07-30T12:30:11;3.55;;;1.58;;
14019;SDS011;7085;51.428;6.796;2022-07-30T12:32:39;3.33;;;1.70;;
14019;SDS011;7085;51.428;6.796;2022-07-30T12:35:06;3.50;;;2.00;;
14019;SDS011;7085;51.428;6.796;2022-07-30T12:37:34;1.80;;;1.70;;
14019;SDS011;7085;51.428;6.796;2022-07-30T12:40:09;2.58;;;1.77;;
14019;SDS011;7085;51.428;6.796;2022-07-30T12:42:47;4.07;;;1.98;;
14019;SDS011;7085;51.428;6.796;2022-07-30T12:45:24;1.42;;;1.33;;
14019;SDS011;7085;51.428;6.796;2022-07-30T12:47:52;2.25;;;1.90;;
14019;SDS011;7085;51.428;6.796;2022-07-30T12:50:19;3.03;;;1.70;;
14019;SDS011;7085;51.428;6.796;2022-07-30T12:52:47;2.72;;;1.80;;
14019;SDS011;7085;51.428;6.796;2022-07-30T12:55:17;4.07;;;2.15;;
14019;SDS011;7085;51.428;6.796;2022-07-30T12:57:53;2.03;;;1.73;;
14019;SDS011;7085;51.428;6.796;2022-07-30T13:00:21;3.92;;;1.88;;
14019;SDS011;7085;51.428;6.796;2022-07-30T13:02:49;3.53;;;1.80;;
14019;SDS011;7085;51.428;6.796;2022-07-30T13:05:16;2.67;;;2.03;;
14019;SDS011;7085;51.428;6.796;2022-07-30T13:07:52;3.33;;;1.85;;
14019;SDS011;7085;51.428;6.796;2022-07-30T13:10:21;2.22;;;1.40;;
14019;SDS011;7085;51.428;6.796;2022-07-30T13:12:48;2.47;;;1.52;;
14019;SDS011;7085;51.428;6.796;2022-07-30T13:15:18;3.80;;;1.95;;
14019;SDS011;7085;51.428;6.796;2022-07-30T13:17:46;3.97;;;1.67;;
14019;SDS011;7085;51.428;6.796;2022-07-30T13:20:13;2.28;;;1.73;;
14019;SDS011;7085;51.428;6.796;2022-07-30T13:22:41;2.40;;;1.75;;
14019;SDS011;7085;51.428;6.796;2022-07-30T13:25:08;1.98;;;1.67;;
14019;SDS011;7085;51.428;6.796;2022-07-30T13:27:38;2.40;;;1.70;;
14019;SDS011;7085;51.428;6.796;2022-07-30T13:30:05;2.95;;;2.15;;
14019;SDS011;7085;51.428;6.796;2022-07-30T13:32:33;1.92;;;1.63;;
14019;SDS011;7085;51.428;6.796;2022-07-30T13:35:00;3.10;;;1.70;;
14019;SDS011;7085;51.428;6.796;2022-07-30T13:37:28;2.92;;;1.58;;
14019;SDS011;7085;51.428;6.796;2022-07-30T13:39:54;3.42;;;1.80;;
14019;SDS011;7085;51.428;6.796;2022-07-30T13:42:21;1.60;;;1.50;;
14019;SDS011;7085;51.428;6.796;2022-07-30T13:44:49;1.65;;;1.48;;
14019;SDS011;7085;51.428;6.796;2022-07-30T13:47:16;1.98;;;1.60;;
14019;SDS011;7085;51.428;6.796;2022-07-30T13:49:43;2.40;;;1.70;;
14019;SDS011;7085;51.428;6.796;2022-07-30T13:52:13;3.25;;;1.88;;
14019;SDS011;7085;51.428;6.796;2022-07-30T13:54:40;2.95;;;1.50;;
14019;SDS011;7085;51.428;6.796;2022-07-30T13:57:07;1.73;;;1.40;;
14019;SDS011;7085;51.428;6.796;2022-07-30T13:59:34;1.70;;;1.40;;
14019;SDS011;7085;51.428;6.796;2022-07-30T14:02:02;2.17;;;1.10;;
14019;SDS011;7085;51.428;6.796;2022-07-30T14:04:29;4.45;;;1.33;;
14019;SDS011;7085;51.428;6.796;2022-07-30T14:06:56;3.47;;;1.70;;
14019;SDS011;7085;51.428;6.796;2022-07-30T14:09:22;3.00;;;1.45;;
14019;SDS011;7085;51.428;6.796;2022-07-30T14:11:50;2.75;;;1.40;;
14019;SDS011;7085;51.428;6.796;2022-07-30T14:14:16;3.45;;;1.67;;
14019;SDS011;7085;51.428;6.796;2022-07-30T14:16:44;1.95;;;1.30;;
14019;SDS011;7085;51.428;6.796;2022-07-30T14:19:15;2.92;;;1.58;;
14019;SDS011;7085;51.428;6.796;2022-07-30T14:21:43;1.67;;;1.40;;
14019;SDS011;7085;51.428;6.796;2022-07-30T14:24:09;3.08;;;1.25;;
14019;SDS011;7085;51.428;6.796;2022-07-30T14:26:37;1.50;;;1.38;;
14019;SDS011;7085;51.428;6.796;2022-07-30T14:29:05;1.48;;;1.05;;
14019;SDS011;7085;51.428;6.796;2022-07-30T14:31:31;1.52;;;1.42;;
14019;SDS011;7085;51.428;6.796;2022-07-30T14:33:58;3.40;;;1.30;;
14019;SDS011;7085;51.428;6.796;2022-07-30T14:36:27;1.05;;;0.98;;
14019;SDS011;7085;51.428;6.796;2022-07-30T14:38:54;0.93;;;0.90;;
14019;SDS011;7085;51.428;6.796;2022-07-30T14:41:21;1.35;;;1.20;;
14019;SDS011;7085;51.428;6.796;2022-07-30T14:43:48;1.95;;;1.10;;
14019;SDS011;7085;51.428;6.796;2022-07-30T14:46:15;3.28;;;1.10;;
14019;SDS011;7085;51.428;6.796;2022-07-30T14:48:43;3.47;;;1.30;;
14019;SDS011;7085;51.428;6.796;2022-07-30T14:51:10;2.22;;;1.20;;
14019;SDS011;7085;51.428;6.796;2022-07-30T14:53:39;1.83;;;1.20;;
14019;SDS011;7085;51.428;6.796;2022-07-30T14:56:06;1.63;;;1.40;;
14019;SDS011;7085;51.428;6.796;2022-07-30T14:58:33;4.18;;;1.50;;
14019;SDS011;7085;51.428;6.796;2022-07-30T15:01:00;3.00;;;1.25;;
14019;SDS011;7085;51.428;6.796;2022-07-30T15:03:31;2.05;;;1.38;;
14019;SDS011;7085;51.428;6.796;2022-07-30T15:05:58;3.75;;;1.10;;
14019;SDS011;7085;51.428;6.796;2022-07-30T15:08:25;4.22;;;0.90;;
14019;SDS011;7085;51.428;6.796;2022-07-30T15:10:53;1.17;;;1.08;;
14019;SDS011;7085;51.428;6.796;2022-07-30T15:13:20;1.20;;;1.10;;
14019;SDS011;7085;51.428;6.796;2022-07-30T15:15:47;2.25;;;1.10;;
14019;SDS011;7085;51.428;6.796;2022-07-30T15:18:15;1.38;;;1.20;;
14019;SDS011;7085;51.428;6.796;2022-07-30T15:20:42;1.30;;;1.20;;
14019;SDS011;7085;51.428;6.796;2022-07-30T15:23:08;1.33;;;0.90;;
14019;SDS011;7085;51.428;6.796;2022-07-30T15:25:35;1.33;;;1.20;;
14019;SDS011;7085;51.428;6.796;2022-07-30T15:28:03;3.13;;;0.98;;